createdAt,value
2023-05-06T00:01:05.839Z,57.29
2023-05-06T00:03:32.639Z,57.11
2023-05-06T00:05:59.494Z,57.03
2023-05-06T00:08:26.243Z,56.95
2023-05-06T00:10:52.776Z,57.21
2023-05-06T00:13:19.403Z,57.07
2023-05-06T00:15:46.012Z,57.42
2023-05-06T00:18:33.986Z,57.62
2023-05-06T00:21:18.982Z,57.42
2023-05-06T00:23:45.596Z,57.76
2023-05-06T00:26:12.357Z,57.65
2023-05-06T00:28:39.078Z,58.05
2023-05-06T00:31:05.662Z,58.20
2023-05-06T00:33:32.186Z,58.06
2023-05-06T00:35:58.739Z,58.67
2023-05-06T00:38:26.067Z,58.75
2023-05-06T00:40:52.630Z,58.81
2023-05-06T00:43:19.180Z,58.80
2023-05-06T00:45:46.093Z,57.98
2023-05-06T00:48:12.823Z,58.13
2023-05-06T00:50:40.693Z,58.23
2023-05-06T00:53:09.623Z,58.02
2023-05-06T00:55:36.705Z,57.84
2023-05-06T00:58:04.566Z,57.74
2023-05-06T01:00:32.216Z,57.76
2023-05-06T01:02:58.871Z,57.83
2023-05-06T01:08:14.833Z,57.49
2023-05-06T01:10:49.841Z,57.82
2023-05-06T01:13:35.976Z,57.79
2023-05-06T01:16:05.020Z,57.83
2023-05-06T01:18:32.730Z,57.66
2023-05-06T01:22:02.898Z,57.40
2023-05-06T01:25:08.623Z,57.30
2023-05-06T01:27:35.408Z,57.09
2023-05-06T01:30:02.588Z,57.89
2023-05-06T01:32:49.470Z,57.67
2023-05-06T01:35:22.302Z,57.64
2023-05-06T01:38:13.227Z,57.54
2023-05-06T01:40:42.637Z,57.42
2023-05-06T01:43:11.726Z,57.58
2023-05-06T01:45:40.485Z,57.44
2023-05-06T01:48:07.817Z,57.68
2023-05-06T01:50:35.765Z,57.53
2023-05-06T01:53:03.388Z,57.56
2023-05-06T01:55:35.243Z,57.33
2023-05-06T01:58:01.783Z,57.48
2023-05-06T02:00:28.367Z,57.63
2023-05-06T02:02:55.032Z,57.66
2023-05-06T02:05:27.670Z,57.71
2023-05-06T02:08:03.296Z,57.73
2023-05-06T02:10:29.968Z,57.66
2023-05-06T02:12:57.468Z,57.70
2023-05-06T02:15:24.034Z,57.80
2023-05-06T02:17:50.920Z,57.87
2023-05-06T02:20:17.469Z,58.13
2023-05-06T02:22:44.013Z,58.34
2023-05-06T02:27:54.633Z,58.43
2023-05-06T02:30:25.201Z,58.65
2023-05-06T02:32:52.024Z,58.82
2023-05-06T02:35:18.616Z,59.29
2023-05-06T02:37:45.161Z,59.68
2023-05-06T02:40:27.178Z,59.43
2023-05-06T02:43:12.983Z,59.50
2023-05-06T02:45:41.119Z,60.33
2023-05-06T02:48:07.690Z,60.22
2023-05-06T02:50:35.393Z,60.35
2023-05-06T02:53:02.049Z,60.29
2023-05-06T02:55:28.645Z,60.22
2023-05-06T02:57:55.500Z,60.42
2023-05-06T03:00:25.466Z,60.73
2023-05-06T03:02:52.059Z,60.63
2023-05-06T03:05:18.884Z,60.51
2023-05-06T03:07:45.423Z,60.61
2023-05-06T03:10:18.031Z,60.18
2023-05-06T03:12:56.826Z,59.50
2023-05-06T03:15:23.660Z,59.94
2023-05-06T03:17:50.357Z,59.94
2023-05-06T03:20:17.230Z,60.20
2023-05-06T03:22:43.772Z,60.22
2023-05-06T03:25:10.539Z,59.70
2023-05-06T03:27:37.280Z,59.17
2023-05-06T03:50:14.407Z,59.89
2023-05-06T03:52:41.016Z,59.82
2023-05-06T03:55:08.290Z,59.84
2023-05-06T03:57:35.234Z,59.71
2023-05-06T04:00:01.784Z,59.83
2023-05-06T04:02:29.470Z,59.64
2023-05-06T04:04:56.329Z,59.45
2023-05-06T04:07:22.851Z,59.46
2023-05-06T04:09:49.669Z,59.52
2023-05-06T04:12:16.228Z,59.80
2023-05-06T04:14:42.786Z,59.68
2023-05-06T04:17:09.396Z,59.94
2023-05-06T04:19:35.938Z,59.60
2023-05-06T04:22:02.529Z,59.04
2023-05-06T04:24:29.421Z,58.78
2023-05-06T04:26:56.270Z,59.02
2023-05-06T04:29:23.159Z,59.65
2023-05-06T04:31:49.721Z,59.29
2023-05-06T04:34:16.667Z,59.80
2023-05-06T04:36:43.425Z,59.32
2023-05-06T04:39:10.566Z,58.69
2023-05-06T04:41:37.762Z,58.37
2023-05-06T04:44:04.820Z,58.13
2023-05-06T04:46:31.396Z,58.63
2023-05-06T04:48:58.514Z,58.61
2023-05-06T04:51:25.246Z,58.65
2023-05-06T04:53:52.680Z,58.21
2023-05-06T04:56:19.282Z,57.87
2023-05-06T04:58:55.011Z,57.83
2023-05-06T05:01:23.620Z,57.90
2023-05-06T05:03:50.375Z,57.86
2023-05-06T05:06:17.020Z,57.57
2023-05-06T05:08:43.583Z,57.42
2023-05-06T05:11:10.394Z,57.34
2023-05-06T05:13:37.352Z,57.45
2023-05-06T05:16:04.324Z,57.13
2023-05-06T05:23:57.064Z,56.16
2023-05-06T05:26:23.652Z,56.29
2023-05-06T05:28:50.300Z,55.95
2023-05-06T05:31:16.925Z,56.11
2023-05-06T05:33:52.725Z,56.00
2023-05-06T05:36:43.698Z,56.37
2023-05-06T05:39:15.862Z,56.12
2023-05-06T05:41:42.446Z,56.23
2023-05-06T06:08:26.481Z,54.66
2023-05-06T06:10:52.989Z,54.43
2023-05-06T06:13:19.713Z,53.82
2023-05-06T06:15:46.559Z,54.05
2023-05-06T06:18:13.229Z,54.11
2023-05-06T06:20:39.779Z,53.92
2023-05-06T06:23:26.284Z,53.88
2023-05-06T06:26:23.774Z,53.30
2023-05-06T06:28:50.302Z,52.99
2023-05-06T06:31:16.930Z,53.00
2023-05-06T06:33:43.501Z,53.65
2023-05-06T06:36:10.515Z,52.82
2023-05-06T06:38:37.130Z,52.90
2023-05-06T06:41:04.468Z,52.92
2023-05-06T06:43:31.135Z,52.33
2023-05-06T06:45:57.785Z,52.36
2023-05-06T06:48:24.481Z,51.78
2023-05-06T06:50:51.049Z,51.24
2023-05-06T06:53:17.632Z,50.46
2023-05-06T06:55:45.018Z,51.05
2023-05-06T06:58:11.689Z,50.50
2023-05-06T07:00:38.269Z,50.08
2023-05-06T07:03:05.126Z,50.21
2023-05-06T07:05:31.711Z,48.94
2023-05-06T07:07:58.299Z,49.94
2023-05-06T07:10:24.893Z,49.07
2023-05-06T07:12:51.857Z,48.71
2023-05-06T07:15:18.502Z,48.21
2023-05-06T07:17:45.161Z,48.55
2023-05-06T07:20:12.417Z,49.37
2023-05-06T07:22:39.180Z,49.23
2023-05-06T07:25:06.269Z,48.70
2023-05-06T07:27:33.047Z,47.46
2023-05-06T07:30:00.394Z,48.34
2023-05-06T07:32:27.016Z,47.83
2023-05-06T07:34:53.569Z,47.46
2023-05-06T07:37:20.223Z,47.53
2023-05-06T07:39:46.849Z,48.51
2023-05-06T07:42:13.471Z,47.67
2023-05-06T07:44:40.440Z,48.53
2023-05-06T07:47:07.353Z,46.77
2023-05-06T07:49:35.236Z,46.77
2023-05-06T07:52:03.453Z,46.45
2023-05-06T07:54:31.534Z,46.13
2023-05-06T07:56:58.241Z,46.57
2023-05-06T07:59:24.870Z,47.84
2023-05-06T08:01:51.606Z,45.33
2023-05-06T08:04:18.198Z,45.97
2023-05-06T08:06:44.741Z,46.39
2023-05-06T08:09:17.030Z,45.00
2023-05-06T08:11:46.477Z,45.90
2023-05-06T08:14:13.102Z,45.29
2023-05-06T08:16:39.906Z,46.47
2023-05-06T08:19:06.909Z,46.03
2023-05-06T08:21:33.443Z,45.67
2023-05-06T08:24:00.127Z,46.01
2023-05-06T08:26:26.687Z,45.86
2023-05-06T08:28:53.290Z,46.02
2023-05-06T08:31:19.880Z,45.61
2023-05-06T08:33:46.463Z,45.16
2023-05-06T08:36:13.028Z,45.98
2023-05-06T08:38:39.541Z,45.16
2023-05-06T08:41:13.692Z,44.33
2023-05-06T08:43:46.098Z,46.05
2023-05-06T08:46:13.654Z,45.08
2023-05-06T08:48:41.485Z,45.43
2023-05-06T08:51:08.932Z,46.32
2023-05-06T08:53:36.570Z,44.28
2023-05-06T08:56:06.898Z,44.65
2023-05-06T08:58:40.529Z,44.74
2023-05-06T09:01:07.283Z,44.52
2023-05-06T09:03:34.008Z,42.78
2023-05-06T09:06:00.805Z,43.65
2023-05-06T09:08:27.357Z,43.83
2023-05-06T09:10:53.980Z,43.40
2023-05-06T09:13:20.693Z,42.13
2023-05-06T09:15:49.019Z,42.72
2023-05-06T09:18:17.075Z,42.49
2023-05-06T09:20:49.454Z,42.64
2023-05-06T09:23:17.711Z,42.89
2023-05-06T09:25:46.395Z,42.42
2023-05-06T09:28:14.058Z,42.59
2023-05-06T09:30:42.467Z,42.19
2023-05-06T09:33:09.674Z,44.07
2023-05-06T09:35:38.935Z,40.84
2023-05-06T09:38:07.166Z,40.36
2023-05-06T09:40:37.971Z,40.96
2023-05-06T09:43:05.855Z,41.03
2023-05-06T09:45:33.078Z,39.10
2023-05-06T09:48:01.131Z,38.67
2023-05-06T09:50:28.283Z,38.20
2023-05-06T09:52:56.010Z,38.52
2023-05-06T09:55:26.546Z,38.47
2023-05-06T10:00:30.691Z,39.10
2023-05-06T10:02:58.832Z,38.27
2023-05-06T10:05:27.599Z,39.00
2023-05-06T10:10:29.917Z,38.83
2023-05-06T10:13:21.565Z,39.75
2023-05-06T10:16:40.188Z,39.05
2023-05-06T10:19:17.402Z,38.92
2023-05-06T10:21:50.606Z,39.05
2023-05-06T10:24:23.280Z,37.12
2023-05-06T10:26:54.857Z,36.42
2023-05-06T10:29:24.828Z,37.42
2023-05-06T10:31:56.928Z,37.29
2023-05-06T10:34:25.596Z,37.39
2023-05-06T10:36:57.440Z,36.91
2023-05-06T10:39:24.938Z,36.33
2023-05-06T10:41:51.494Z,36.88
2023-05-06T10:44:18.050Z,35.90
2023-05-06T10:47:10.721Z,36.24
2023-05-06T10:49:37.267Z,35.41
2023-05-06T10:52:12.952Z,34.65
2023-05-06T10:54:49.338Z,32.39
2023-05-06T10:57:16.031Z,34.56
2023-05-06T10:59:47.286Z,35.00
2023-05-06T11:04:41.625Z,35.50
2023-05-06T11:07:15.824Z,35.14
2023-05-06T11:09:59.358Z,35.18
2023-05-06T11:17:24.049Z,35.62
2023-05-06T11:20:22.906Z,34.98
2023-05-06T11:22:49.681Z,34.81
2023-05-06T11:25:43.205Z,35.06
2023-05-06T11:30:54.878Z,34.68
2023-05-06T11:33:24.119Z,35.70
2023-05-06T11:35:50.726Z,35.18
2023-05-06T11:38:17.570Z,34.26
2023-05-06T11:40:44.194Z,34.02
2023-05-06T11:43:19.810Z,33.99
2023-05-06T11:45:48.323Z,32.89
2023-05-06T11:48:16.138Z,33.49
2023-05-06T11:50:47.649Z,34.57
2023-05-06T11:53:37.221Z,33.71
2023-05-06T11:56:58.100Z,33.83
2023-05-06T11:59:34.481Z,34.46
2023-05-06T12:02:03.907Z,35.18
2023-05-06T12:04:47.500Z,33.94
2023-05-06T12:07:16.338Z,33.54
2023-05-06T12:09:46.605Z,34.78
2023-05-06T12:15:10.139Z,34.32
2023-05-06T12:17:36.938Z,35.54
2023-05-06T12:20:04.545Z,34.83
2023-05-06T12:29:39.695Z,35.82
2023-05-06T12:32:10.773Z,35.60
2023-05-06T12:34:41.427Z,35.50
2023-05-06T12:37:11.594Z,35.06
2023-05-06T12:39:39.642Z,35.46
2023-05-06T12:44:46.609Z,35.02
2023-05-06T12:47:24.321Z,35.11
2023-05-06T12:49:53.716Z,35.25
2023-05-06T12:52:22.612Z,35.54
2023-05-06T12:54:49.822Z,35.34
2023-05-06T12:57:16.677Z,35.60
2023-05-06T13:00:07.466Z,35.79
2023-05-06T13:05:09.673Z,35.40
2023-05-06T13:07:36.292Z,35.02
2023-05-06T13:10:03.615Z,34.71
2023-05-06T13:12:30.200Z,34.85
2023-05-06T13:14:56.757Z,35.21
2023-05-06T13:17:23.664Z,35.02
2023-05-06T13:19:51.091Z,34.97
2023-05-06T13:22:17.887Z,34.97
2023-05-06T13:24:44.451Z,35.20
2023-05-06T13:27:11.596Z,35.63
2023-05-06T13:29:38.630Z,35.58
2023-05-06T13:32:07.923Z,35.73
2023-05-06T13:34:35.322Z,35.38
2023-05-06T13:37:01.914Z,35.89
2023-05-06T13:39:28.535Z,35.04
2023-05-06T13:41:55.233Z,35.60
2023-05-06T13:44:22.294Z,36.43
2023-05-06T13:46:48.988Z,36.32
2023-05-06T13:49:15.904Z,36.02
2023-05-06T13:51:42.602Z,37.00
2023-05-06T13:54:09.269Z,37.56
2023-05-06T13:56:36.139Z,38.63
2023-05-06T13:59:02.717Z,39.80
2023-05-06T14:01:29.284Z,40.18
2023-05-06T14:03:55.883Z,40.56
2023-05-06T14:06:22.440Z,40.77
2023-05-06T14:08:49.039Z,41.16
2023-05-06T14:11:15.654Z,41.21
2023-05-06T14:13:42.199Z,41.25
2023-05-06T14:16:08.833Z,41.07
2023-05-06T14:18:36.564Z,41.64
2023-05-06T14:21:03.688Z,41.97
2023-05-06T14:23:30.483Z,42.41
2023-05-06T14:25:57.402Z,42.99
2023-05-06T14:28:23.935Z,43.73
2023-05-06T14:30:51.438Z,43.77
2023-05-06T14:33:18.002Z,43.86
2023-05-06T14:35:46.159Z,44.69
2023-05-06T14:38:12.815Z,44.49
2023-05-06T14:40:39.443Z,44.48
2023-05-06T14:43:07.622Z,44.95
2023-05-06T14:45:34.557Z,45.05
2023-05-06T14:48:01.409Z,45.02
2023-05-06T14:50:28.017Z,45.38
2023-05-06T14:52:54.560Z,45.20
2023-05-06T14:55:21.367Z,44.64
2023-05-06T14:57:48.181Z,44.51
2023-05-06T15:00:16.038Z,44.51
2023-05-06T15:02:42.770Z,44.51
2023-05-06T15:05:10.831Z,44.65
2023-05-06T15:07:37.943Z,44.57
2023-05-06T15:10:05.195Z,44.29
2023-05-06T15:12:33.504Z,44.89
2023-05-06T15:15:00.073Z,45.74
2023-05-06T15:17:26.644Z,47.84
2023-05-06T15:19:53.554Z,48.57
2023-05-06T15:22:20.087Z,48.74
2023-05-06T15:24:46.962Z,48.99
2023-05-06T15:27:13.679Z,49.03
2023-05-06T15:29:40.277Z,49.12
2023-05-06T15:32:07.361Z,49.14
2023-05-06T15:34:34.127Z,48.71
2023-05-06T15:37:01.799Z,48.58
2023-05-06T15:39:28.879Z,48.57
2023-05-06T15:41:58.252Z,48.48
2023-05-06T15:46:53.260Z,48.51
2023-05-06T15:49:48.939Z,48.83
2023-05-06T15:52:06.430Z,49.08
2023-05-06T15:54:36.154Z,48.66
2023-05-06T15:57:07.176Z,48.63
2023-05-06T15:59:34.144Z,49.16
2023-05-06T16:02:26.344Z,49.16
2023-05-06T16:04:47.773Z,49.32
2023-05-06T16:07:15.258Z,48.97
2023-05-06T16:09:42.761Z,48.36
2023-05-06T16:12:10.062Z,48.26
2023-05-06T16:14:36.700Z,47.89
2023-05-06T16:17:03.554Z,46.91
2023-05-06T16:19:34.976Z,46.76
2023-05-06T16:22:02.286Z,44.90
2023-05-06T16:24:28.863Z,44.45
2023-05-06T16:26:58.236Z,43.89
2023-05-06T16:29:25.035Z,43.84
2023-05-06T16:31:51.653Z,44.30
2023-05-06T16:34:18.305Z,44.52
2023-05-06T16:36:45.956Z,44.95
2023-05-06T16:39:12.591Z,45.41
2023-05-06T16:41:39.186Z,45.56
2023-05-06T16:44:05.834Z,46.04
2023-05-06T16:46:33.273Z,46.43
2023-05-06T16:48:59.933Z,46.92
2023-05-06T16:51:29.621Z,47.36
2023-05-06T16:53:56.340Z,47.67
2023-05-06T16:56:22.981Z,47.80
2023-05-06T16:58:49.601Z,48.14
2023-05-06T17:01:16.323Z,48.49
2023-05-06T17:03:43.029Z,48.36
2023-05-06T17:06:09.664Z,48.82
2023-05-06T17:08:37.243Z,48.88
2023-05-06T17:11:07.044Z,48.99
2023-05-06T17:13:34.136Z,48.94
2023-05-06T17:16:00.941Z,48.84
2023-05-06T17:18:27.540Z,48.87
2023-05-06T17:20:56.639Z,49.08
2023-05-06T17:23:24.322Z,49.16
2023-05-06T17:25:51.572Z,49.31
2023-05-06T17:28:20.598Z,49.51
2023-05-06T17:30:47.178Z,49.62
2023-05-06T17:33:13.893Z,49.49
2023-05-06T17:35:40.515Z,49.63
2023-05-06T17:38:07.797Z,49.73
2023-05-06T17:40:34.488Z,49.79
2023-05-06T17:43:01.079Z,50.08
2023-05-06T17:45:28.581Z,50.38
2023-05-06T17:47:56.485Z,50.52
2023-05-06T17:50:23.471Z,50.91
2023-05-06T17:52:52.338Z,50.95
2023-05-06T17:55:21.530Z,51.08
2023-05-06T17:57:48.644Z,51.29
2023-05-06T18:00:16.910Z,51.92
2023-05-06T18:02:44.485Z,51.77
2023-05-06T18:05:11.911Z,51.88
2023-05-06T18:07:39.145Z,51.97
2023-05-06T18:10:06.579Z,51.96
2023-05-06T18:12:33.269Z,52.05
2023-05-06T18:15:00.729Z,52.17
2023-05-06T18:17:27.404Z,52.51
2023-05-06T18:19:54.067Z,52.78
2023-05-06T18:22:20.629Z,52.97
2023-05-06T18:24:47.244Z,53.54
2023-05-06T18:27:13.780Z,54.45
2023-05-06T18:29:41.362Z,55.26
2023-05-06T18:32:08.246Z,55.51
2023-05-06T18:34:34.968Z,55.70
2023-05-06T18:37:01.558Z,56.07
2023-05-06T18:39:28.123Z,56.44
2023-05-06T18:41:54.679Z,56.42
2023-05-06T18:44:21.297Z,56.65
2023-05-06T18:46:47.854Z,56.66
2023-05-06T18:49:15.128Z,56.66
2023-05-06T18:51:41.774Z,57.01
2023-05-06T18:54:08.382Z,57.10
2023-05-06T18:56:36.388Z,56.95
2023-05-06T18:59:03.019Z,56.39
2023-05-06T19:01:29.876Z,56.09
2023-05-06T19:03:56.918Z,55.71
2023-05-06T19:06:23.849Z,55.97
2023-05-06T19:08:50.649Z,55.72
2023-05-06T19:11:21.269Z,55.69
2023-05-06T19:13:47.863Z,55.93
2023-05-06T19:16:15.050Z,55.89
2023-05-06T19:18:41.838Z,56.64
2023-05-06T19:21:15.207Z,57.44
2023-05-06T19:23:41.814Z,58.28
2023-05-06T19:26:11.192Z,58.34
2023-05-06T19:28:39.484Z,58.51
2023-05-06T19:31:09.383Z,58.86
2023-05-06T19:33:37.177Z,58.94
2023-05-06T19:36:04.413Z,58.04
2023-05-06T19:38:31.022Z,57.46
2023-05-06T19:40:57.679Z,57.15
2023-05-06T19:43:24.534Z,57.07
2023-05-06T19:45:51.265Z,57.84
2023-05-06T19:48:19.316Z,58.53
2023-05-06T19:50:45.892Z,59.00
2023-05-06T19:53:12.455Z,59.56
2023-05-06T19:55:38.983Z,59.43
2023-05-06T19:58:05.606Z,58.90
2023-05-06T20:00:32.517Z,58.80
2023-05-06T20:03:00.114Z,58.81
2023-05-06T20:05:31.464Z,58.78
2023-05-06T20:07:59.913Z,59.39
2023-05-06T20:10:27.376Z,58.97
2023-05-06T20:12:56.073Z,59.30
2023-05-06T20:15:24.053Z,60.20
2023-05-06T20:17:50.623Z,60.84
2023-05-06T20:20:17.567Z,60.75
2023-05-06T20:22:44.141Z,61.37
2023-05-06T20:25:13.290Z,60.82
2023-05-06T20:27:40.029Z,60.76
2023-05-06T20:30:08.123Z,60.28
2023-05-06T20:32:34.952Z,60.43
2023-05-06T20:35:01.644Z,60.37
2023-05-06T20:37:28.760Z,60.21
2023-05-06T20:39:55.337Z,59.97
2023-05-06T20:42:21.900Z,59.79
2023-05-06T20:44:53.745Z,59.62
2023-05-06T20:47:20.331Z,59.71
2023-05-06T20:49:46.904Z,59.70
2023-05-06T20:52:14.685Z,59.44
2023-05-06T20:54:42.857Z,59.38
2023-05-06T20:57:09.957Z,59.25
2023-05-06T20:59:36.839Z,59.29
2023-05-06T21:02:04.417Z,59.73
2023-05-06T21:04:31.360Z,59.56
2023-05-06T21:06:58.104Z,59.08
2023-05-06T21:09:26.729Z,58.70
2023-05-06T21:11:53.586Z,59.15
2023-05-06T21:14:21.694Z,60.19
2023-05-06T21:16:48.303Z,60.93
2023-05-06T21:19:14.880Z,61.46
2023-05-06T21:21:41.496Z,61.17
2023-05-06T21:24:08.094Z,60.69
2023-05-06T21:26:34.968Z,60.10
2023-05-06T21:29:01.562Z,59.65
2023-05-06T21:34:19.744Z,60.45
2023-05-06T21:36:46.429Z,60.77
2023-05-06T21:39:16.102Z,60.71
2023-05-06T21:41:42.755Z,60.35
2023-05-06T22:04:15.313Z,61.35
2023-05-06T22:06:42.039Z,61.33
2023-05-06T22:09:09.602Z,61.04
2023-05-06T22:11:38.243Z,60.41
2023-05-06T22:18:07.973Z,62.96
2023-05-06T22:20:36.587Z,63.78
2023-05-06T22:23:03.836Z,63.28
2023-05-06T22:25:30.430Z,63.24
2023-05-06T22:27:57.040Z,63.45
2023-05-06T22:30:26.651Z,64.23
2023-05-06T22:35:34.788Z,67.09
2023-05-06T22:38:01.379Z,68.01
2023-05-06T22:40:28.023Z,67.23
2023-05-06T22:42:55.234Z,66.67
2023-05-06T22:45:21.920Z,66.90
2023-05-06T22:54:05.987Z,67.09
2023-05-06T22:56:32.539Z,67.51
2023-05-06T22:58:59.077Z,68.41
2023-05-06T23:01:31.634Z,68.88
2023-05-06T23:04:01.103Z,69.96
2023-05-06T23:11:38.241Z,68.74
2023-05-06T23:14:04.981Z,68.82
2023-05-06T23:16:32.331Z,70.02
2023-05-06T23:18:58.997Z,70.05
2023-05-06T23:25:34.721Z,69.99
2023-05-06T23:28:01.320Z,69.48
2023-05-06T23:30:28.052Z,69.38
2023-05-06T23:32:54.781Z,69.46
2023-05-06T23:35:21.331Z,69.33
2023-05-06T23:37:47.905Z,68.97
2023-05-06T23:43:11.343Z,67.85
2023-05-06T23:45:39.743Z,67.64
2023-05-06T23:48:06.609Z,67.09
2023-05-06T23:50:33.280Z,66.76
2023-05-06T23:52:59.874Z,66.65
2023-05-06T23:55:26.798Z,66.38
